Station info - map view · info · telemetry · weather · raw · status · beacons · messages · bulletins · browse · moving · my account
Callsign, ship name or locator: Clear       
It is possible to search using wildcards (*?) after a prefix. Example: OH*
APRS station WW6PEN-9 - show graphs
Map loading...
Comment: 147.510MHz T100 Bill Penn
Mic-E message: In service
Location: 34°35.51' N 118°08.20' W - locator DM04WO32OA - show map - static map
0.9 miles East bearing 86° from Desert View Highlands, Los Angeles County, California, United States [?]
1.4 miles Northwest bearing 307° from Palmdale, Los Angeles County, California, United States
37.8 miles North bearing 9° from Los Angeles, Los Angeles County, California, United States
57.0 miles North bearing 3° from Long Beach, Los Angeles County, California, United States
Last position: 2021-05-05 16:55:49 EDT (11d 15h52m ago)
2021-05-05 13:55:49 PDT local time at Desert View Highlands, United States [?]
Altitude: 2631 ft
Course: 269°
Speed: 7 MPH
Device: Yaesu: FTM-400DR (rig)
Last path: WW6PEN-9>S4SUUQ via WIDE1-1,WIDE2-1,qAR,N6LXX-10 (good)
Positions stored: 788
Other SSIDs: WW6PEN-7
Stations near current position of WW6PEN-9 - show more
callsign distance last heard - EDT      callsign distance last heard - EDT
N6EAB B1.1 miles 178°2021-05-17 08:38:11 N6EAB-B1.1 miles 178°2021-05-17 08:38:21
N7OP-91.7 miles 42°2021-05-17 07:08:18 N1ROE-92.9 miles 107°2021-05-11 17:44:44
KJ6TAG3.3 miles 116°2021-05-17 08:45:14 FN6MXW4.0 miles 289°2021-04-18 09:51:13
W6/CT-1264.8 miles 199°2021-04-25 20:35:21 N7BFE B5.1 miles 168°2021-05-17 00:17:19
N7BFE-B5.1 miles 168°2021-05-17 00:17:29 FW69675.9 miles 308°2021-05-17 04:38:33
KE6RHV-105.9 miles 113°2021-05-17 07:51:19 AIRCOR-36.0 miles 347°2021-05-16 15:55:18
KN6LZV-16.0 miles 310°2021-05-08 16:19:29 KK6MTQ-106.2 miles 221°2021-05-17 07:53:14
KM6TLW-96.2 miles 347°2021-04-24 20:02:10 AD6TG-136.3 miles 195°2021-05-17 08:45:41
KR6C6.4 miles 312°2021-05-17 08:38:39 KM6YKL-97.0 miles 280°2021-05-08 22:25:12
K9RTB-97.3 miles 355°2021-05-09 17:32:10 K6RIN-97.4 miles 187°2021-05-17 08:47:18
Stations which heard WW6PEN-9 directly on radio –
callsign pkts first heard - EDT last heard longest (tx => rx) longest at - EDT
W6SCE-10 8 2021-05-05 15:11:00 2021-05-05 16:12:57 DM04IG > DM04QH 38.5 miles 83° 2021-05-05 15:11:00
N6EX-5 1 2021-05-05 15:53:07 2021-05-05 15:53:07 DM04PJ > DM03TT 45.1 miles 158° 2021-05-05 15:53:07
K6ERN 7 2021-05-05 15:11:26 2021-05-05 15:49:28 DM04PJ > DM04HI 35.0 miles 263° 2021-05-05 15:49:28
WA6ZSN 12 2021-05-05 15:10:55 2021-05-05 16:30:32 DM04VL > DM04LH 48.3 miles 257° 2021-05-05 16:30:32
KELLER 2 2021-05-05 16:42:20 2021-05-05 16:55:51 DM04WO > DM14LE 67.7 miles 114° 2021-05-05 16:55:51
KD6DCN-5 2 2021-05-05 14:15:05 2021-05-05 14:24:40 CM94WL > DM12MS 215.5 miles 122° 2021-05-05 14:15:05
WB9COY-1 2 2021-05-05 14:20:03 2021-05-05 14:22:18 CM94XL > DM12IW 191.5 miles 122° 2021-05-05 14:20:03
KD6VEX-1 1 2021-05-05 13:59:22 2021-05-05 13:59:22 CM94VO > CM94WO 3.4 miles 71° 2021-05-05 13:59:22
W6AB-15 2 2021-05-05 13:01:29 2021-05-05 13:48:23 CM95PE > CM94SS 31.3 miles 158° 2021-05-05 13:01:29
K6TZ-9 20 2021-05-05 14:19:27 2021-05-05 15:12:19 DM04IG > DM04DJ 28.3 miles 291° 2021-05-05 15:12:19
K6NLC-5 2 2021-05-05 12:49:02 2021-05-05 12:54:21 CM95PG > CM95QG 5.2 miles 107° 2021-05-05 12:49:02
KB9ENS-10 1 2021-05-05 16:08:00 2021-05-05 16:08:00 DM04RI > DM03TV 32.7 miles 162° 2021-05-05 16:08:00
WB9VXY-5 44 2021-05-03 13:12:07 2021-05-05 13:29:27 CM94SV > CM95PJ 37.9 miles 334° 2021-05-05 13:29:27
K6SYV-10 9 2021-05-05 13:49:37 2021-05-05 14:34:11 DM04CK > CM94XR 22.9 miles 332° 2021-05-05 14:34:11
N6LXX-10 17 2021-05-05 15:19:20 2021-05-05 16:55:49 DM04KH > DM04UJ 46.7 miles 82° 2021-05-05 15:19:20
N6LXX-4 10 2021-05-05 16:25:06 2021-05-05 16:55:21 DM04UL > DM14DI 36.0 miles 104° 2021-05-05 16:25:06
K7AZ-10 8 2021-05-05 13:02:15 2021-05-05 15:05:16 DM04HH > CM94SO 67.8 miles 288° 2021-05-05 15:05:16
W6RR 1 2021-05-05 12:51:37 2021-05-05 12:51:37 CM95PG > CM95PP 24.8 miles 359° 2021-05-05 12:51:37
WB9VXY-6 10 2021-05-03 13:11:34 2021-05-05 12:46:34 CM95OH > CM95OH 3.6 miles 303° 2021-05-05 12:46:34
K7AZ-11 19 2021-05-05 13:04:20 2021-05-05 14:02:33 CM95QD > CM94VV 32.0 miles 122° 2021-05-05 13:04:20
WI6RE-1 4 2021-05-05 16:36:20 2021-05-05 16:46:16 DM04WM > DM15DL 70.6 miles 19° 2021-05-05 16:36:20

Only position packets which were originated by the station are shown here. The range statistics show some extra long hops, because some digipeaters do not correctly add themselves to the digipeater path. Please check the raw packets.
About this site
This page shows real-time information collected from the Automatic Position Reporting System Internet network (APRS-IS). APRS is used by amateur (ham) radio operators to transmit real-time position information, weather data, telemetry and messages over the radio. A vehicle equipped with a GPS receiver, a VHF transmitter or HF transceiver and a small computer device called a tracker transmits it's location, speed and course in a small data packet, which is then received by a nearby iGate receiving site which forwards the packet on the Internet. Systems connected to the Internet can send information on the APRS-IS without a radio transmitter, or collect and display information transmitted anywhere in the world.
User guide · FAQ · Blog · Discussion group · Linking to aprs.fi · AIS sites · Service status · Database statistics · Advertising on aprs.fi · Technical details · API · Change log · Planned changes · Credits and thanks · Terms Of Service · iPhone/iPad APRS